Portada
METAR-TAF:

METAR-TAF

Aeroports :

Mae Hong Son, Tailàndia

latitud: 19-18N, longitud: 097-50E, altitud: 267 m

Observació

L'informe es va fer fa 32 minuts, a les 03:00 UTC
Vent calma
Temperatura 21°C
Humitat 69%
Pressió 1015 hPa
Visibilitat: 7000 m

METAR: VTCH 270300Z 00000KT 7000 NSC 21/15 Q1015 NOSIG

Hora: 10:32 (03:32 UTC)

Pronòstic

L'informe es va fer fa 4 hores i 32 minuts, a les 23:00 UTC
Pronòstic vàlid del 27 a les 00 UTC al 27 a les 24 UTC
Vent 5 kt del Oest/Nord-Oest
Visibilitat: 2000 m
boirina
Evolucionant progressivament
l' 27 a les 02 UTC al 27 a les 04 UTC
Vent 5 kt del Oest/Nord-Oest
Visibilitat: 9000 m

TAF: VTCH 262300Z 2700/2724 29005KT 2000 BR NSC BECMG 2702/2704 29005KT 9000 NSW

Observacions i pronòstics meteorològics de més de 4000 aeroports (METAR i TAF).

Les estacions disponibles són els punts grocs i vermells al mapa.

Posi el ratolí al punt desitjat per veure el nom de l'estació.

Feu clic per veure les observacions i els pronòstics meteorològics.

Per canviar el mapa: feu clic els botons verds amb una creu de color negre per apropar; al botó verd amb un guió per allunyar la imatge; o en les fletxes verdes per a mapes adjacents.


METAR-TAF: